Time;durP1;ratioP1;P1;durP2;ratioP2;P2;SDS_P1;SDS_P2;PMS_P1;PMS_P2;Temp;Humidity;BMP_temperature;BMP_pressure;BME280_temperature;BME280_humidity;BME280_pressure;Samples;Min_cycle;Max_cycle;Signal;HPM_P1;HPM_P2
2023/08/05 00:01:39;;;;;;;2.20;1.83;;;20.90;66.70;;;;;;4900451;29;20092;-79
2023/08/05 00:04:05;;;;;;;1.60;1.50;;;20.90;66.70;;;;;;4900614;29;20041;-79
2023/08/05 00:06:30;;;;;;;2.00;1.80;;;20.90;66.70;;;;;;4900902;29;20478;-79
2023/08/05 00:08:56;;;;;;;1.98;1.67;;;20.90;66.80;;;;;;4884667;29;20033;-79
2023/08/05 00:11:22;;;;;;;2.33;1.90;;;20.90;66.80;;;;;;4884952;29;20458;-81
2023/08/05 00:13:47;;;;;;;2.75;1.70;;;20.80;66.80;;;;;;4915827;29;20116;-79
2023/08/05 00:16:14;;;;;;;3.10;1.90;;;20.80;66.90;;;;;;4901336;29;20036;-79
2023/08/05 00:18:39;;;;;;;3.72;2.00;;;20.80;66.90;;;;;;4900382;29;20497;-81
2023/08/05 00:21:05;;;;;;;2.95;2.05;;;20.80;67.00;;;;;;4900569;29;20033;-79
2023/08/05 00:23:31;;;;;;;2.60;1.83;;;20.80;67.00;;;;;;4916361;29;20041;-80
2023/08/05 00:25:56;;;;;;;2.40;1.73;;;20.80;67.10;;;;;;4915631;29;20043;-83
2023/08/05 00:28:22;;;;;;;2.72;1.95;;;20.80;67.10;;;;;;4899636;29;20393;-80
2023/08/05 00:30:48;;;;;;;2.33;1.80;;;20.70;67.00;;;;;;4884459;29;20037;-79
2023/08/05 00:33:14;;;;;;;2.78;1.70;;;20.80;67.10;;;;;;4899957;29;20039;-80
2023/08/05 00:35:39;;;;;;;2.30;1.70;;;20.70;67.00;;;;;;4900061;29;20501;-80
2023/08/05 00:38:05;;;;;;;2.72;1.85;;;20.70;67.10;;;;;;4884040;29;20033;-80
2023/08/05 00:40:31;;;;;;;2.03;1.67;;;20.70;67.20;;;;;;4899559;29;20028;-81
2023/08/05 00:42:57;;;;;;;1.95;1.70;;;20.70;67.20;;;;;;4900873;29;20033;-80
2023/08/05 00:45:23;;;;;;;2.28;1.70;;;20.70;67.20;;;;;;4899163;29;20045;-80
2023/08/05 00:47:48;;;;;;;2.40;1.77;;;20.70;67.30;;;;;;4900198;29;20048;-79
2023/08/05 00:50:15;;;;;;;3.30;1.88;;;20.70;67.30;;;;;;4884001;29;20529;-81
2023/08/05 00:52:42;;;;;;;2.10;1.67;;;20.60;67.30;;;;;;4898734;29;20040;-80
2023/08/05 00:55:08;;;;;;;1.70;1.52;;;20.60;67.30;;;;;;4899550;29;20037;-79
2023/08/05 00:57:34;;;;;;;2.13;1.70;;;20.60;67.30;;;;;;4915792;29;20036;-82
2023/08/05 01:00:01;;;;;;;2.85;1.83;;;20.60;67.30;;;;;;4915101;29;20070;-79
2023/08/05 01:02:26;;;;;;;2.30;1.85;;;20.60;67.40;;;;;;4900174;29;20083;-80
2023/08/05 01:04:52;;;;;;;1.88;1.67;;;20.60;67.60;;;;;;4883767;29;20410;-81
2023/08/05 01:07:21;;;;;;;2.30;1.80;;;20.60;67.40;;;;;;4899173;29;20123;-80
2023/08/05 01:09:47;;;;;;;2.42;1.90;;;20.60;67.50;;;;;;4899095;29;20473;-80
2023/08/05 01:12:13;;;;;;;2.20;2.00;;;20.60;67.50;;;;;;4883278;29;20077;-79
2023/08/05 01:14:38;;;;;;;2.35;2.08;;;20.60;67.50;;;;;;4883227;29;20108;-79
2023/08/05 01:17:07;;;;;;;2.75;1.80;;;20.50;67.50;;;;;;4899033;29;20047;-79
2023/08/05 01:19:34;;;;;;;2.13;1.75;;;20.50;67.50;;;;;;4883256;29;20081;-78
2023/08/05 01:22:06;;;;;;;1.95;1.70;;;20.50;67.50;;;;;;4898815;29;20160;-79
2023/08/05 01:24:41;;;;;;;2.25;1.80;;;20.50;67.50;;;;;;4899835;29;20358;-78
2023/08/05 01:27:09;;;;;;;2.55;1.92;;;20.50;67.50;;;;;;4900071;29;20165;-80
2023/08/05 01:29:35;;;;;;;3.53;2.05;;;20.50;67.50;;;;;;4900514;29;20021;-79
2023/08/05 01:32:02;;;;;;;2.83;2.00;;;20.50;67.60;;;;;;4898466;29;20036;-80
2023/08/05 01:34:28;;;;;;;2.17;1.58;;;20.50;67.60;;;;;;4899674;29;20033;-80
2023/08/05 01:36:54;;;;;;;2.63;1.83;;;20.50;67.60;;;;;;4899357;29;20024;-80
2023/08/05 01:39:21;;;;;;;2.25;1.67;;;20.40;67.50;;;;;;4914519;29;20044;-79
2023/08/05 01:41:46;;;;;;;2.30;1.80;;;20.40;67.60;;;;;;4898343;29;20051;-81
2023/08/05 01:44:12;;;;;;;2.03;1.80;;;20.40;67.60;;;;;;4882645;29;20033;-80
2023/08/05 01:46:38;;;;;;;2.45;1.77;;;20.40;68.20;;;;;;4883148;29;20029;-79
2023/08/05 01:49:03;;;;;;;2.63;1.85;;;20.40;67.70;;;;;;4898562;29;20363;-79
2023/08/05 01:51:29;;;;;;;2.22;1.45;;;20.40;67.70;;;;;;4898515;29;20155;-80
2023/08/05 01:53:55;;;;;;;1.70;1.60;;;20.40;67.70;;;;;;4898319;29;20458;-82
2023/08/05 01:56:21;;;;;;;1.70;1.60;;;20.30;67.70;;;;;;4898535;29;20037;-79
2023/08/05 01:58:46;;;;;;;2.22;1.80;;;20.30;67.70;;;;;;4898590;29;20486;-81
2023/08/05 02:01:12;;;;;;;2.10;1.65;;;20.30;67.70;;;;;;4898176;29;20509;-80
2023/08/05 02:03:38;;;;;;;2.50;1.80;;;20.30;67.70;;;;;;4914270;29;20108;-82
2023/08/05 02:06:04;;;;;;;2.15;1.65;;;20.30;67.70;;;;;;4898632;29;20385;-81
2023/08/05 02:08:29;;;;;;;1.75;1.50;;;20.30;67.80;;;;;;4883216;29;20039;-80
2023/08/05 02:10:55;;;;;;;1.90;1.63;;;20.30;67.80;;;;;;4898796;29;20120;-80
2023/08/05 02:13:21;;;;;;;2.63;1.90;;;20.20;67.80;;;;;;4897983;29;20036;-81
2023/08/05 02:15:47;;;;;;;1.90;1.67;;;20.30;67.80;;;;;;4882416;29;20493;-79
2023/08/05 02:18:12;;;;;;;1.83;1.60;;;20.30;67.80;;;;;;4898112;29;20454;-79
2023/08/05 02:20:39;;;;;;;2.25;1.70;;;20.20;67.80;;;;;;4882409;29;20114;-80
2023/08/05 02:23:05;;;;;;;2.40;1.73;;;20.20;67.80;;;;;;4898370;29;20059;-80
2023/08/05 02:25:32;;;;;;;2.17;1.77;;;20.20;67.80;;;;;;4913400;29;20047;-81
2023/08/05 02:27:58;;;;;;;1.70;1.40;;;20.20;67.80;;;;;;4897817;29;20119;-79
2023/08/05 02:30:24;;;;;;;2.05;1.63;;;20.20;67.80;;;;;;4897729;29;20044;-79
2023/08/05 02:32:49;;;;;;;2.15;1.70;;;20.20;67.90;;;;;;4898022;29;20137;-81
2023/08/05 02:35:15;;;;;;;2.55;1.70;;;20.10;67.80;;;;;;4913348;29;20131;-80
2023/08/05 02:37:41;;;;;;;2.05;1.85;;;20.10;67.80;;;;;;4898027;29;20033;-82
2023/08/05 02:40:08;;;;;;;2.33;1.70;;;20.20;67.90;;;;;;4882003;29;20044;-79
2023/08/05 02:42:33;;;;;;;2.40;1.77;;;20.10;67.80;;;;;;4882130;29;20040;-80
2023/08/05 02:45:00;;;;;;;1.50;1.40;;;20.10;67.90;;;;;;4897624;29;20130;-79
2023/08/05 02:47:25;;;;;;;2.03;1.83;;;20.10;67.90;;;;;;4898134;29;20478;-83
2023/08/05 02:49:51;;;;;;;1.60;1.48;;;20.10;67.90;;;;;;4897533;29;20040;-80
2023/08/05 02:52:17;;;;;;;2.25;1.50;;;20.10;67.90;;;;;;4913264;29;20494;-80
2023/08/05 02:54:43;;;;;;;1.60;1.50;;;20.10;67.90;;;;;;4882153;29;20073;-80
2023/08/05 02:57:08;;;;;;;1.67;1.42;;;20.10;68.00;;;;;;4897354;29;20028;-80
2023/08/05 02:59:34;;;;;;;1.70;1.52;;;20.10;68.00;;;;;;4897495;29;20031;-79
2023/08/05 03:02:00;;;;;;;1.50;1.40;;;20.10;68.00;;;;;;4897590;29;20041;-79
2023/08/05 03:04:26;;;;;;;2.17;1.73;;;20.10;68.00;;;;;;4897303;29;20043;-80
2023/08/05 03:06:51;;;;;;;1.92;1.58;;;20.10;68.00;;;;;;4913028;29;20041;-80
2023/08/05 03:09:17;;;;;;;2.20;1.70;;;20.00;68.00;;;;;;4912984;29;20390;-82
2023/08/05 03:11:43;;;;;;;1.73;1.63;;;20.00;68.70;;;;;;4897245;29;20041;-80
2023/08/05 03:14:09;;;;;;;1.77;1.67;;;20.10;68.10;;;;;;4897569;29;20036;-80
2023/08/05 03:16:35;;;;;;;2.58;1.92;;;20.00;68.00;;;;;;4884146;29;20414;-80
2023/08/05 03:19:04;;;;;;;2.10;1.60;;;20.00;68.10;;;;;;4901242;29;20558;-81
2023/08/05 03:21:33;;;;;;;2.35;1.83;;;20.00;68.10;;;;;;4901209;29;20393;-82
2023/08/05 03:24:00;;;;;;;3.38;1.58;;;20.00;68.10;;;;;;4900770;29;20040;-81
2023/08/05 03:26:27;;;;;;;2.90;1.40;;;19.90;68.10;;;;;;4901013;29;20088;-80
2023/08/05 03:28:57;;;;;;;1.88;1.50;;;19.90;68.80;;;;;;4916198;29;20402;-80
2023/08/05 03:31:24;;;;;;;2.42;1.63;;;19.90;68.20;;;;;;4901601;29;20036;-82
2023/08/05 03:33:50;;;;;;;1.92;1.58;;;19.90;68.20;;;;;;4885610;29;20493;-80
2023/08/05 03:36:16;;;;;;;1.70;1.50;;;19.90;68.20;;;;;;4901464;29;20085;-82
2023/08/05 03:38:42;;;;;;;1.95;1.58;;;19.90;68.20;;;;;;4900740;29;20041;-80
2023/08/05 03:41:08;;;;;;;1.73;1.50;;;19.90;68.20;;;;;;4901373;29;20374;-79
2023/08/05 03:43:34;;;;;;;2.75;1.60;;;19.90;68.20;;;;;;4900684;29;20049;-79
2023/08/05 03:46:01;;;;;;;1.75;1.60;;;19.80;68.10;;;;;;4900870;29;20029;-80
2023/08/05 03:48:27;;;;;;;2.30;1.67;;;19.80;68.10;;;;;;4900497;29;20029;-79
2023/08/05 03:50:54;;;;;;;1.60;1.50;;;19.80;68.20;;;;;;4900702;29;20040;-81
2023/08/05 03:53:21;;;;;;;1.63;1.52;;;19.80;68.20;;;;;;4900075;29;20041;-78
2023/08/05 03:55:47;;;;;;;2.33;2.00;;;19.80;68.20;;;;;;4900379;29;20041;-78
2023/08/05 03:58:13;;;;;;;2.53;1.80;;;19.80;68.20;;;;;;4915948;29;20084;-78
2023/08/05 04:00:43;;;;;;;2.17;1.85;;;19.80;68.30;;;;;;4884708;29;20462;-78
2023/08/05 04:03:09;;;;;;;1.50;1.40;;;19.70;68.30;;;;;;4884736;29;20044;-80
2023/08/05 04:05:35;;;;;;;3.85;1.95;;;19.70;68.30;;;;;;4916012;29;20037;-79
2023/08/05 04:08:01;;;;;;;1.45;1.35;;;19.70;68.30;;;;;;4916104;29;20048;-79
2023/08/05 04:10:27;;;;;;;2.10;1.80;;;19.70;68.30;;;;;;4900086;29;20040;-79
2023/08/05 04:12:54;;;;;;;1.85;1.55;;;19.70;68.30;;;;;;4884581;29;20033;-79
2023/08/05 04:15:20;;;;;;;2.20;1.60;;;19.70;68.40;;;;;;4915764;29;20052;-78
2023/08/05 04:17:47;;;;;;;2.13;1.60;;;19.60;68.30;;;;;;4884485;29;20580;-78
2023/08/05 04:20:13;;;;;;;2.15;1.75;;;19.60;68.30;;;;;;4884304;29;20105;-78
2023/08/05 04:22:39;;;;;;;2.00;1.65;;;19.60;68.40;;;;;;4900840;29;20037;-78
2023/08/05 04:25:06;;;;;;;1.80;1.70;;;19.60;68.40;;;;;;4915861;29;20073;-78
2023/08/05 04:27:32;;;;;;;2.33;1.60;;;19.60;68.40;;;;;;4884092;29;20039;-78
2023/08/05 04:29:58;;;;;;;1.70;1.60;;;19.60;68.40;;;;;;4915723;29;20063;-81
2023/08/05 04:32:23;;;;;;;2.47;1.60;;;19.60;68.50;;;;;;4884492;29;20483;-79
2023/08/05 04:34:49;;;;;;;1.88;1.65;;;19.50;68.40;;;;;;4899730;29;20029;-78
2023/08/05 04:37:21;;;;;;;2.55;1.67;;;19.50;68.40;;;;;;4915496;29;20041;-78
2023/08/05 04:39:47;;;;;;;1.95;1.73;;;19.50;68.50;;;;;;4900319;29;20035;-78
2023/08/05 04:42:14;;;;;;;1.90;1.70;;;19.50;68.50;;;;;;4900897;29;20037;-78
2023/08/05 04:44:40;;;;;;;2.00;1.80;;;19.50;68.50;;;;;;4900509;29;20115;-77
2023/08/05 04:47:07;;;;;;;2.40;1.63;;;19.50;68.60;;;;;;4899723;29;20158;-79
2023/08/05 04:49:33;;;;;;;2.15;1.73;;;19.50;68.60;;;;;;4900925;29;20111;-80
2023/08/05 04:51:59;;;;;;;1.77;1.67;;;19.50;68.60;;;;;;4883946;29;20116;-78
2023/08/05 04:54:24;;;;;;;1.60;1.45;;;19.50;68.60;;;;;;4884104;29;20385;-79
2023/08/05 04:56:50;;;;;;;2.05;1.58;;;19.50;68.60;;;;;;4899720;29;20405;-77
2023/08/05 04:59:16;;;;;;;2.15;1.88;;;19.50;68.60;;;;;;4900011;29;20465;-78
2023/08/05 05:01:41;;;;;;;2.08;1.70;;;19.40;68.70;;;;;;4884429;29;20037;-78
2023/08/05 05:04:07;;;;;;;2.25;1.58;;;19.50;68.70;;;;;;4914880;29;20545;-78
2023/08/05 05:06:33;;;;;;;1.83;1.58;;;19.50;68.70;;;;;;4899155;29;20036;-79
2023/08/05 05:08:59;;;;;;;2.17;1.98;;;19.40;68.70;;;;;;4899829;29;20067;-78
2023/08/05 05:11:25;;;;;;;2.25;1.88;;;19.40;68.70;;;;;;4914677;29;20474;-77
2023/08/05 05:13:52;;;;;;;1.75;1.65;;;19.40;68.70;;;;;;4914787;29;20454;-78
2023/08/05 05:16:18;;;;;;;1.75;1.65;;;19.40;68.70;;;;;;4914663;29;20033;-78
2023/08/05 05:18:44;;;;;;;2.40;1.90;;;19.40;68.80;;;;;;4898463;29;20512;-79
2023/08/05 05:21:10;;;;;;;2.53;2.03;;;19.40;68.80;;;;;;4883425;29;20037;-79
2023/08/05 05:23:36;;;;;;;2.17;1.85;;;19.40;68.80;;;;;;4899802;29;20041;-81
2023/08/05 05:26:01;;;;;;;2.15;1.95;;;19.40;68.80;;;;;;4899333;29;20036;-78
2023/08/05 05:28:27;;;;;;;2.55;1.83;;;19.40;69.50;;;;;;4900208;29;20116;-78
2023/08/05 05:30:53;;;;;;;2.08;1.80;;;19.40;68.80;;;;;;4899022;29;20401;-78
2023/08/05 05:33:19;;;;;;;2.17;1.85;;;19.40;68.90;;;;;;4898747;29;20037;-78
2023/08/05 05:35:44;;;;;;;2.03;1.80;;;19.40;68.90;;;;;;4883080;29;20039;-79
2023/08/05 05:38:10;;;;;;;3.35;2.13;;;19.40;68.90;;;;;;4898739;29;20096;-78
2023/08/05 05:40:40;;;;;;;2.58;2.00;;;19.40;68.90;;;;;;4898702;29;20036;-79
2023/08/05 05:43:07;;;;;;;2.42;2.03;;;19.40;69.00;;;;;;4899600;29;20043;-79
2023/08/05 05:45:34;;;;;;;2.42;1.92;;;19.40;69.00;;;;;;4883891;29;20040;-78
2023/08/05 05:48:00;;;;;;;2.22;1.98;;;19.40;69.00;;;;;;4914110;29;20040;-79
2023/08/05 05:50:26;;;;;;;2.20;2.00;;;19.40;69.00;;;;;;4899051;29;20504;-79
2023/08/05 05:52:53;;;;;;;2.38;1.90;;;19.40;69.10;;;;;;4898296;29;20112;-78
2023/08/05 05:55:19;;;;;;;2.78;2.00;;;19.40;69.10;;;;;;4913872;29;20043;-78
2023/08/05 05:57:45;;;;;;;2.28;1.92;;;19.40;69.10;;;;;;4899705;29;20030;-78
2023/08/05 06:00:11;;;;;;;2.50;2.05;;;19.40;69.10;;;;;;4913940;29;20135;-79
2023/08/05 06:02:40;;;;;;;2.33;2.00;;;19.40;69.10;;;;;;4913945;29;20041;-81
2023/08/05 06:05:07;;;;;;;2.50;2.03;;;19.40;69.10;;;;;;4898098;29;20512;-78
2023/08/05 06:07:33;;;;;;;2.60;2.10;;;19.40;69.10;;;;;;4899584;29;20104;-78
2023/08/05 06:09:59;;;;;;;2.78;2.25;;;19.40;69.10;;;;;;4914180;29;20157;-79
2023/08/05 06:12:30;;;;;;;2.83;2.10;;;19.40;69.10;;;;;;4898171;29;20044;-80
2023/08/05 06:14:56;;;;;;;2.40;1.98;;;19.40;69.10;;;;;;4883007;29;20092;-80
2023/08/05 06:17:22;;;;;;;2.72;2.15;;;19.40;69.10;;;;;;4897656;29;20115;-80
2023/08/05 06:19:48;;;;;;;3.22;2.10;;;19.40;69.10;;;;;;4883022;29;20039;-79
2023/08/05 06:22:13;;;;;;;2.83;2.33;;;19.40;69.10;;;;;;4897664;29;20041;-78
2023/08/05 06:24:39;;;;;;;2.80;2.10;;;19.40;69.20;;;;;;4899800;29;20096;-79
2023/08/05 06:27:05;;;;;;;4.03;2.67;;;19.40;69.20;;;;;;4897954;29;20067;-79
2023/08/05 06:29:31;;;;;;;3.03;2.20;;;19.40;69.20;;;;;;4898602;29;20486;-79
2023/08/05 06:31:57;;;;;;;2.63;1.98;;;19.40;69.20;;;;;;4897884;29;20043;-78
2023/08/05 06:34:23;;;;;;;3.25;2.60;;;19.40;69.20;;;;;;4897616;29;20040;-79
2023/08/05 06:36:49;;;;;;;3.55;2.30;;;19.40;69.30;;;;;;4897852;29;20036;-80
2023/08/05 06:39:15;;;;;;;3.40;2.60;;;19.50;69.30;;;;;;4897185;29;20037;-78
2023/08/05 06:41:40;;;;;;;3.45;2.45;;;19.50;69.30;;;;;;4898131;29;20394;-79
2023/08/05 06:44:06;;;;;;;2.65;2.10;;;19.50;69.30;;;;;;4913004;29;20419;-79
2023/08/05 06:46:32;;;;;;;2.47;2.10;;;19.50;69.30;;;;;;4898144;29;20111;-80
2023/08/05 06:48:58;;;;;;;2.78;2.28;;;19.50;69.30;;;;;;4882193;29;20533;-82
2023/08/05 06:51:24;;;;;;;2.83;2.20;;;19.50;69.30;;;;;;4896475;29;20068;-81
2023/08/05 06:53:50;;;;;;;3.03;2.60;;;19.50;69.30;;;;;;4881796;29;20123;-81
2023/08/05 06:56:15;;;;;;;3.55;2.72;;;19.50;69.30;;;;;;4881911;29;20040;-81
2023/08/05 06:58:42;;;;;;;3.80;2.50;;;19.60;69.30;;;;;;4913112;29;20032;-79
2023/08/05 07:01:08;;;;;;;3.35;2.78;;;19.60;69.40;;;;;;4897462;29;20067;-81
2023/08/05 07:03:33;;;;;;;3.00;2.38;;;19.60;69.30;;;;;;4913508;29;20478;-80
2023/08/05 07:05:59;;;;;;;2.85;2.35;;;19.60;69.30;;;;;;4897273;29;20040;-80
2023/08/05 07:08:25;;;;;;;3.05;2.55;;;19.70;69.30;;;;;;4897176;29;20569;-81
2023/08/05 07:10:58;;;;;;;3.13;2.28;;;19.60;69.90;;;;;;4897301;29;20044;-80
2023/08/05 07:13:25;;;;;;;3.00;2.38;;;19.70;69.40;;;;;;4897006;29;20029;-80
2023/08/05 07:15:57;;;;;;;3.67;2.70;;;19.70;69.30;;;;;;4913689;29;20039;-83
2023/08/05 07:18:23;;;;;;;2.95;2.25;;;19.70;69.30;;;;;;4897439;29;20059;-80
2023/08/05 07:20:50;;;;;;;3.10;2.50;;;19.80;69.30;;;;;;4897978;29;20040;-80
2023/08/05 07:23:15;;;;;;;2.85;2.42;;;19.80;69.20;;;;;;4881796;29;20041;-80
2023/08/05 07:25:41;;;;;;;3.53;2.55;;;19.80;69.20;;;;;;4897267;29;20032;-82
2023/08/05 07:28:07;;;;;;;3.40;2.50;;;19.80;69.20;;;;;;4897131;29;20043;-83
2023/08/05 07:30:33;;;;;;;4.00;2.60;;;19.80;69.20;;;;;;4898202;29;20033;-79
2023/08/05 07:32:58;;;;;;;2.88;2.38;;;19.90;69.20;;;;;;4897451;29;20032;-78
2023/08/05 07:35:28;;;;;;;4.05;3.03;;;19.90;69.10;;;;;;4881560;29;20129;-79
2023/08/05 07:37:55;;;;;;;3.55;2.83;;;19.90;69.10;;;;;;4896923;29;20089;-80
2023/08/05 07:40:25;;;;;;;3.05;2.25;;;20.00;69.10;;;;;;4897850;29;20088;-78
2023/08/05 07:42:53;;;;;;;2.67;2.28;;;20.00;69.10;;;;;;4881569;29;20052;-80
2023/08/05 07:45:21;;;;;;;3.05;2.25;;;20.00;69.00;;;;;;4897473;29;20082;-79
2023/08/05 07:47:47;;;;;;;2.58;2.22;;;20.10;69.00;;;;;;4896709;29;20043;-79
2023/08/05 07:50:21;;;;;;;3.17;2.45;;;20.00;69.00;;;;;;4881637;29;20052;-78
2023/08/05 07:52:47;;;;;;;2.75;2.17;;;20.10;69.00;;;;;;4898160;29;20044;-79
2023/08/05 07:55:13;;;;;;;3.53;2.50;;;20.10;68.90;;;;;;4896887;29;20028;-80
2023/08/05 07:57:40;;;;;;;2.30;2.00;;;20.10;68.80;;;;;;4896987;29;20040;-80
2023/08/05 08:00:09;;;;;;;3.10;2.17;;;20.20;68.80;;;;;;4896581;29;20040;-81
2023/08/05 08:02:38;;;;;;;3.03;2.10;;;20.20;68.80;;;;;;4900159;29;20052;-81
2023/08/05 08:05:05;;;;;;;3.50;2.15;;;20.30;68.80;;;;;;4915959;29;20032;-79
2023/08/05 08:07:31;;;;;;;3.85;2.47;;;20.30;68.80;;;;;;4900515;29;20481;-81
2023/08/05 08:09:57;;;;;;;2.60;2.10;;;20.30;68.70;;;;;;4900459;29;20064;-81
2023/08/05 08:12:23;;;;;;;3.05;2.20;;;20.40;68.70;;;;;;4884740;29;20079;-80
2023/08/05 08:14:49;;;;;;;2.42;2.00;;;20.40;68.70;;;;;;4899945;29;20036;-82
2023/08/05 08:17:16;;;;;;;2.15;1.90;;;20.40;68.60;;;;;;4901321;29;20430;-83
2023/08/05 08:19:42;;;;;;;2.03;1.80;;;20.40;68.50;;;;;;4884787;29;20048;-80
2023/08/05 08:22:08;;;;;;;3.25;2.05;;;20.50;68.60;;;;;;4900777;29;20170;-79
2023/08/05 08:24:35;;;;;;;2.47;2.00;;;20.50;68.50;;;;;;4916985;29;20036;-79
2023/08/05 08:27:00;;;;;;;2.60;2.13;;;20.60;68.50;;;;;;4915917;29;20048;-84
2023/08/05 08:29:26;;;;;;;2.85;2.00;;;20.60;68.40;;;;;;4900628;29;20378;-80
2023/08/05 08:31:52;;;;;;;2.00;1.80;;;20.60;68.40;;;;;;4899686;29;20045;-78
2023/08/05 08:34:17;;;;;;;2.20;1.90;;;20.60;68.30;;;;;;4899626;29;20538;-81
2023/08/05 08:36:43;;;;;;;2.22;1.75;;;20.70;68.30;;;;;;4899734;29;20525;-79
2023/08/05 08:39:09;;;;;;;1.70;1.60;;;20.80;68.20;;;;;;4884315;29;20418;-80
2023/08/05 08:41:43;;;;;;;1.95;1.70;;;20.80;68.10;;;;;;4899550;29;20114;-81
2023/08/05 08:44:10;;;;;;;2.00;1.77;;;20.80;68.10;;;;;;4901330;29;20032;-83
2023/08/05 08:46:37;;;;;;;2.33;1.80;;;20.90;67.90;;;;;;4899803;29;20495;-86
2023/08/05 08:49:03;;;;;;;1.85;1.73;;;21.00;67.90;;;;;;4899606;29;20071;-84
2023/08/05 08:51:29;;;;;;;1.75;1.63;;;21.00;67.80;;;;;;4899534;29;20040;-81
2023/08/05 08:53:56;;;;;;;2.17;1.80;;;21.10;67.80;;;;;;4883978;29;20040;-82
2023/08/05 08:56:22;;;;;;;1.92;1.67;;;21.10;67.70;;;;;;4884088;29;20032;-81
2023/08/05 08:58:47;;;;;;;1.95;1.75;;;21.20;67.60;;;;;;4884396;29;20451;-80
2023/08/05 09:01:17;;;;;;;2.10;1.90;;;21.20;67.50;;;;;;4899397;29;20033;-81
2023/08/05 09:03:47;;;;;;;1.90;1.55;;;21.20;67.40;;;;;;4915088;29;20028;-79
2023/08/05 09:06:13;;;;;;;2.50;1.90;;;21.30;67.40;;;;;;4900339;29;20123;-79
2023/08/05 09:08:38;;;;;;;1.95;1.70;;;21.30;67.30;;;;;;4898916;29;20120;-80
2023/08/05 09:11:04;;;;;;;2.10;1.90;;;21.40;67.30;;;;;;4883144;29;20127;-80
2023/08/05 09:13:30;;;;;;;1.85;1.65;;;21.40;67.30;;;;;;4882611;29;20032;-79
2023/08/05 09:15:56;;;;;;;1.83;1.65;;;21.40;67.20;;;;;;4899147;29;20470;-79
2023/08/05 09:18:21;;;;;;;1.80;1.70;;;21.50;67.20;;;;;;4898857;29;20048;-79
2023/08/05 09:20:50;;;;;;;2.08;1.70;;;21.50;67.10;;;;;;4883316;29;20041;-80
2023/08/05 09:23:16;;;;;;;1.95;1.80;;;21.50;67.10;;;;;;4899445;29;20048;-80
2023/08/05 09:25:46;;;;;;;2.20;1.90;;;21.50;67.10;;;;;;4898702;29;20036;-81
2023/08/05 09:28:12;;;;;;;1.85;1.63;;;21.60;67.10;;;;;;4898813;29;20038;-79
2023/08/05 09:30:38;;;;;;;2.47;1.58;;;21.60;67.00;;;;;;4900103;29;20107;-80
2023/08/05 09:33:04;;;;;;;2.58;1.67;;;21.70;67.00;;;;;;4898377;29;20020;-79
2023/08/05 09:35:30;;;;;;;2.15;1.52;;;21.70;67.00;;;;;;4899505;29;20057;-79
2023/08/05 09:37:56;;;;;;;1.77;1.63;;;21.80;67.00;;;;;;4898248;29;20040;-79
2023/08/05 09:40:26;;;;;;;2.13;1.70;;;21.80;66.90;;;;;;4882562;29;20055;-79
2023/08/05 09:42:54;;;;;;;1.70;1.60;;;21.90;66.90;;;;;;4898485;29;20060;-79
2023/08/05 09:45:21;;;;;;;2.10;1.80;;;22.00;66.80;;;;;;4898525;29;20033;-80
2023/08/05 09:47:49;;;;;;;1.60;1.50;;;22.00;66.70;;;;;;4914858;29;20498;-80
2023/08/05 09:50:17;;;;;;;1.95;1.67;;;22.10;66.60;;;;;;4898442;29;20032;-80
2023/08/05 09:52:43;;;;;;;2.00;1.80;;;22.10;66.50;;;;;;4899782;29;20485;-80
2023/08/05 09:55:18;;;;;;;1.70;1.52;;;22.20;66.50;;;;;;4883083;29;20367;-80
2023/08/05 09:57:45;;;;;;;1.73;1.50;;;22.30;66.50;;;;;;4898193;29;20075;-80
2023/08/05 10:00:14;;;;;;;1.70;1.60;;;22.30;66.30;;;;;;4898456;29;20092;-80
2023/08/05 10:02:44;;;;;;;1.70;1.60;;;22.40;66.30;;;;;;4899452;29;20033;-81
2023/08/05 10:05:11;;;;;;;2.17;1.75;;;22.50;66.30;;;;;;4913661;29;20032;-81
2023/08/05 10:07:41;;;;;;;1.70;1.60;;;22.50;66.20;;;;;;4898344;29;20036;-80
2023/08/05 10:10:08;;;;;;;1.55;1.45;;;22.60;66.10;;;;;;4898724;29;20037;-80
2023/08/05 10:12:41;;;;;;;1.80;1.55;;;22.70;66.10;;;;;;4882404;29;20079;-80
2023/08/05 10:15:13;;;;;;;1.88;1.67;;;22.70;66.00;;;;;;4898167;29;20040;-79
2023/08/05 10:17:41;;;;;;;1.58;1.48;;;22.80;65.90;;;;;;4898468;29;20466;-81
2023/08/05 10:20:12;;;;;;;2.22;1.73;;;22.80;65.90;;;;;;4897775;29;20036;-81
2023/08/05 10:22:39;;;;;;;1.65;1.45;;;22.90;65.80;;;;;;4898449;29;20036;-81
2023/08/05 10:25:05;;;;;;;1.67;1.40;;;23.00;65.80;;;;;;4898566;29;20039;-81
2023/08/05 10:27:41;;;;;;;2.00;1.60;;;23.00;65.70;;;;;;4883132;29;20119;-80
2023/08/05 10:30:13;;;;;;;1.65;1.40;;;23.10;65.80;;;;;;4897894;29;20476;-82
2023/08/05 10:32:53;;;;;;;1.55;1.45;;;23.10;65.60;;;;;;4914091;29;20111;-79
2023/08/05 10:35:39;;;;;;;1.65;1.40;;;23.20;65.70;;;;;;4914255;29;20036;-79
2023/08/05 10:38:09;;;;;;;2.03;1.58;;;23.20;65.60;;;;;;4914201;29;20037;-80
2023/08/05 10:40:39;;;;;;;1.58;1.48;;;23.30;65.50;;;;;;4898750;29;20100;-79
2023/08/05 10:43:05;;;;;;;1.75;1.63;;;23.30;65.40;;;;;;4897636;29;20075;-80
2023/08/05 10:45:35;;;;;;;2.15;1.45;;;23.40;65.40;;;;;;4913547;29;20032;-79
2023/08/05 10:48:07;;;;;;;1.42;1.33;;;23.40;65.40;;;;;;4898411;29;20043;-79
2023/08/05 10:50:38;;;;;;;1.60;1.50;;;23.40;65.30;;;;;;4913555;29;20076;-80
2023/08/05 10:53:12;;;;;;;1.50;1.40;;;23.50;65.40;;;;;;4897626;29;20041;-79
2023/08/05 10:55:49;;;;;;;1.45;1.35;;;23.50;65.40;;;;;;4913986;29;20450;-80
2023/08/05 10:58:20;;;;;;;1.70;1.50;;;23.60;65.30;;;;;;4897671;29;20051;-79
2023/08/05 11:00:59;;;;;;;1.90;1.70;;;23.60;65.30;;;;;;4897713;29;20439;-78
2023/08/05 11:03:45;;;;;;;1.63;1.50;;;23.60;65.30;;;;;;4897774;29;20470;-80
2023/08/05 11:06:12;;;;;;;1.50;1.40;;;23.60;65.30;;;;;;4913847;29;20553;-80
2023/08/05 11:08:40;;;;;;;1.95;1.70;;;23.60;65.10;;;;;;4897344;29;20470;-80
2023/08/05 11:11:11;;;;;;;2.33;1.42;;;23.60;65.10;;;;;;4898723;29;20047;-79
2023/08/05 11:13:38;;;;;;;1.75;1.50;;;23.70;65.20;;;;;;4898812;29;20037;-79
2023/08/05 11:16:06;;;;;;;1.65;1.55;;;23.70;65.20;;;;;;4897039;29;20538;-80
2023/08/05 11:18:33;;;;;;;1.40;1.30;;;23.70;65.20;;;;;;4881269;29;20056;-80
2023/08/05 11:21:00;;;;;;;1.73;1.60;;;23.80;65.10;;;;;;4898777;29;20040;-80
2023/08/05 11:23:26;;;;;;;1.60;1.50;;;23.80;65.10;;;;;;4913015;29;20108;-79
2023/08/05 11:25:53;;;;;;;1.60;1.50;;;23.80;65.10;;;;;;4899024;29;20112;-80
2023/08/05 11:28:20;;;;;;;1.67;1.50;;;23.80;65.10;;;;;;4898906;29;20032;-80
2023/08/05 11:30:46;;;;;;;1.88;1.60;;;23.80;65.10;;;;;;4898910;29;20032;-82
2023/08/05 11:33:15;;;;;;;1.67;1.58;;;23.90;65.10;;;;;;4896909;29;20079;-81
2023/08/05 11:35:45;;;;;;;2.03;1.77;;;23.90;65.10;;;;;;4897267;29;20045;-79
2023/08/05 11:38:19;;;;;;;1.65;1.50;;;24.00;65.10;;;;;;4899931;29;20186;-81
2023/08/05 11:40:53;;;;;;;1.90;1.65;;;23.90;65.00;;;;;;4900780;29;20060;-78
2023/08/05 11:43:19;;;;;;;1.60;1.45;;;24.00;64.90;;;;;;4900644;29;20033;-81
2023/08/05 11:45:47;;;;;;;1.60;1.50;;;24.00;64.80;;;;;;4900454;29;20040;-81
2023/08/05 11:48:23;;;;;;;1.63;1.40;;;24.00;64.80;;;;;;4900666;29;20040;-80
2023/08/05 11:51:01;;;;;;;1.80;1.60;;;24.10;64.80;;;;;;4885346;29;20041;-81
2023/08/05 11:53:27;;;;;;;1.98;1.80;;;24.10;64.80;;;;;;4885502;29;20131;-81
2023/08/05 11:55:53;;;;;;;1.98;1.73;;;24.10;64.70;;;;;;4900612;29;20126;-80
2023/08/05 11:58:20;;;;;;;1.50;1.30;;;24.10;64.60;;;;;;4900837;29;20044;-80
2023/08/05 12:00:59;;;;;;;1.80;1.70;;;24.20;64.60;;;;;;4916291;29;20100;-79
2023/08/05 12:03:32;;;;;;;1.52;1.42;;;24.20;64.60;;;;;;4901157;29;20037;-80
2023/08/05 12:06:02;;;;;;;1.63;1.52;;;24.20;64.60;;;;;;4900230;29;20044;-79
2023/08/05 12:08:39;;;;;;;1.67;1.58;;;24.20;64.60;;;;;;4900541;29;20044;-79
2023/08/05 12:11:05;;;;;;;1.90;1.60;;;24.20;64.60;;;;;;4884740;29;20036;-81
2023/08/05 12:13:34;;;;;;;2.15;1.73;;;24.20;64.60;;;;;;4915835;29;20063;-78
2023/08/05 12:16:00;;;;;;;1.98;1.63;;;24.10;64.70;;;;;;4900339;29;20041;-78
2023/08/05 12:18:26;;;;;;;1.67;1.58;;;24.10;64.70;;;;;;4884288;29;20060;-78
2023/08/05 12:20:52;;;;;;;1.92;1.67;;;24.10;64.80;;;;;;4899874;29;20039;-79
2023/08/05 12:23:18;;;;;;;2.13;1.67;;;24.10;64.80;;;;;;4869198;29;20048;-79
2023/08/05 12:25:43;;;;;;;2.50;1.85;;;24.10;64.90;;;;;;4900727;29;20427;-78
2023/08/05 12:28:09;;;;;;;2.53;1.85;;;24.00;64.90;;;;;;4899846;29;20036;-80
2023/08/05 12:30:35;;;;;;;2.28;1.90;;;24.00;65.00;;;;;;4899790;29;20036;-79
2023/08/05 12:33:02;;;;;;;1.80;1.65;;;24.00;65.10;;;;;;4900008;29;20051;-79
2023/08/05 12:35:28;;;;;;;2.30;1.77;;;24.00;65.20;;;;;;4901456;29;20044;-78
2023/08/05 12:37:54;;;;;;;2.45;1.80;;;24.00;65.30;;;;;;4901452;29;20033;-80
2023/08/05 12:40:20;;;;;;;2.00;1.67;;;23.90;65.30;;;;;;4899935;29;20088;-79
2023/08/05 12:42:46;;;;;;;3.03;2.10;;;23.90;65.30;;;;;;4899838;29;20033;-79
2023/08/05 12:45:11;;;;;;;2.15;1.83;;;23.90;65.40;;;;;;4899537;29;20132;-79
2023/08/05 12:47:41;;;;;;;2.88;2.00;;;23.80;65.50;;;;;;4899541;29;20036;-79